sensor_id;sensor_type;location;lat;lon;timestamp;P1;durP1;ratioP1;P2;durP2;ratioP2
9398;SDS011;4739;49.334;8.792;2022-10-31T00:01:59;7.53;;;5.10;;
9398;SDS011;4739;49.334;8.792;2022-10-31T00:04:25;8.37;;;4.27;;
9398;SDS011;4739;49.334;8.792;2022-10-31T00:06:50;7.83;;;4.13;;
9398;SDS011;4739;49.334;8.792;2022-10-31T00:09:16;6.67;;;4.63;;
9398;SDS011;4739;49.334;8.792;2022-10-31T00:11:42;4.67;;;4.27;;
9398;SDS011;4739;49.334;8.792;2022-10-31T00:14:07;5.00;;;4.40;;
9398;SDS011;4739;49.334;8.792;2022-10-31T00:16:33;6.27;;;4.70;;
9398;SDS011;4739;49.334;8.792;2022-10-31T00:18:59;5.47;;;4.23;;
9398;SDS011;4739;49.334;8.792;2022-10-31T00:21:27;6.10;;;4.47;;
9398;SDS011;4739;49.334;8.792;2022-10-31T00:23:54;5.17;;;4.00;;
9398;SDS011;4739;49.334;8.792;2022-10-31T00:26:20;8.10;;;4.67;;
9398;SDS011;4739;49.334;8.792;2022-10-31T00:28:45;5.47;;;4.50;;
9398;SDS011;4739;49.334;8.792;2022-10-31T00:31:12;5.87;;;4.10;;
9398;SDS011;4739;49.334;8.792;2022-10-31T00:33:38;4.40;;;3.60;;
9398;SDS011;4739;49.334;8.792;2022-10-31T00:36:05;5.00;;;4.23;;
9398;SDS011;4739;49.334;8.792;2022-10-31T00:38:32;6.67;;;4.30;;
9398;SDS011;4739;49.334;8.792;2022-10-31T00:40:58;5.10;;;4.33;;
9398;SDS011;4739;49.334;8.792;2022-10-31T00:43:23;5.60;;;3.93;;
9398;SDS011;4739;49.334;8.792;2022-10-31T00:45:49;5.90;;;4.30;;
9398;SDS011;4739;49.334;8.792;2022-10-31T00:48:15;9.53;;;4.50;;
9398;SDS011;4739;49.334;8.792;2022-10-31T00:50:40;5.43;;;4.07;;
9398;SDS011;4739;49.334;8.792;2022-10-31T00:53:06;8.67;;;4.30;;
9398;SDS011;4739;49.334;8.792;2022-10-31T00:55:32;4.67;;;4.03;;
9398;SDS011;4739;49.334;8.792;2022-10-31T00:57:58;7.50;;;4.17;;
9398;SDS011;4739;49.334;8.792;2022-10-31T01:00:24;6.93;;;3.70;;
9398;SDS011;4739;49.334;8.792;2022-10-31T01:02:50;6.83;;;3.90;;
9398;SDS011;4739;49.334;8.792;2022-10-31T01:05:15;9.10;;;4.17;;
9398;SDS011;4739;49.334;8.792;2022-10-31T01:07:41;7.23;;;3.80;;
9398;SDS011;4739;49.334;8.792;2022-10-31T01:10:07;8.20;;;4.60;;
9398;SDS011;4739;49.334;8.792;2022-10-31T01:12:38;6.67;;;4.20;;
9398;SDS011;4739;49.334;8.792;2022-10-31T01:15:08;4.70;;;3.87;;
9398;SDS011;4739;49.334;8.792;2022-10-31T01:17:35;5.80;;;4.40;;
9398;SDS011;4739;49.334;8.792;2022-10-31T01:20:01;6.00;;;4.20;;
9398;SDS011;4739;49.334;8.792;2022-10-31T01:22:28;5.23;;;4.07;;
9398;SDS011;4739;49.334;8.792;2022-10-31T01:24:54;5.53;;;3.57;;
9398;SDS011;4739;49.334;8.792;2022-10-31T01:27:19;4.60;;;3.60;;
9398;SDS011;4739;49.334;8.792;2022-10-31T01:29:45;4.30;;;3.57;;
9398;SDS011;4739;49.334;8.792;2022-10-31T01:32:10;7.13;;;4.23;;
9398;SDS011;4739;49.334;8.792;2022-10-31T01:34:36;4.90;;;4.20;;
9398;SDS011;4739;49.334;8.792;2022-10-31T01:37:02;6.03;;;4.27;;
9398;SDS011;4739;49.334;8.792;2022-10-31T01:39:27;6.20;;;3.93;;
9398;SDS011;4739;49.334;8.792;2022-10-31T01:41:53;5.50;;;3.60;;
9398;SDS011;4739;49.334;8.792;2022-10-31T01:46:45;4.40;;;3.57;;
9398;SDS011;4739;49.334;8.792;2022-10-31T01:49:18;5.13;;;3.90;;
9398;SDS011;4739;49.334;8.792;2022-10-31T01:51:57;5.57;;;3.80;;
9398;SDS011;4739;49.334;8.792;2022-10-31T01:54:31;6.93;;;3.80;;
9398;SDS011;4739;49.334;8.792;2022-10-31T01:57:04;5.73;;;3.73;;
9398;SDS011;4739;49.334;8.792;2022-10-31T01:59:34;6.27;;;3.87;;
9398;SDS011;4739;49.334;8.792;2022-10-31T02:02:04;6.03;;;3.43;;
9398;SDS011;4739;49.334;8.792;2022-10-31T02:04:30;6.40;;;3.63;;
9398;SDS011;4739;49.334;8.792;2022-10-31T02:07:00;5.10;;;3.40;;
9398;SDS011;4739;49.334;8.792;2022-10-31T02:09:30;7.60;;;3.90;;
9398;SDS011;4739;49.334;8.792;2022-10-31T02:11:58;6.53;;;4.00;;
9398;SDS011;4739;49.334;8.792;2022-10-31T02:14:25;8.23;;;3.47;;
9398;SDS011;4739;49.334;8.792;2022-10-31T02:16:53;4.43;;;3.63;;
9398;SDS011;4739;49.334;8.792;2022-10-31T02:19:22;6.97;;;4.43;;
9398;SDS011;4739;49.334;8.792;2022-10-31T02:22:02;5.37;;;3.60;;
9398;SDS011;4739;49.334;8.792;2022-10-31T02:32:28;5.63;;;3.20;;
9398;SDS011;4739;49.334;8.792;2022-10-31T02:35:23;7.83;;;3.97;;
9398;SDS011;4739;49.334;8.792;2022-10-31T02:40:49;4.40;;;3.37;;
9398;SDS011;4739;49.334;8.792;2022-10-31T02:43:26;5.67;;;2.93;;
9398;SDS011;4739;49.334;8.792;2022-10-31T02:45:58;6.60;;;3.67;;
9398;SDS011;4739;49.334;8.792;2022-10-31T02:48:33;5.17;;;3.63;;
9398;SDS011;4739;49.334;8.792;2022-10-31T02:51:03;7.00;;;3.27;;
9398;SDS011;4739;49.334;8.792;2022-10-31T02:53:33;5.07;;;3.70;;
9398;SDS011;4739;49.334;8.792;2022-10-31T02:56:04;4.10;;;3.73;;
9398;SDS011;4739;49.334;8.792;2022-10-31T02:58:36;6.13;;;4.27;;
9398;SDS011;4739;49.334;8.792;2022-10-31T03:06:20;6.30;;;3.90;;
9398;SDS011;4739;49.334;8.792;2022-10-31T03:09:01;7.10;;;3.70;;
9398;SDS011;4739;49.334;8.792;2022-10-31T03:11:29;5.63;;;3.90;;
9398;SDS011;4739;49.334;8.792;2022-10-31T03:14:10;7.13;;;3.97;;
9398;SDS011;4739;49.334;8.792;2022-10-31T03:16:47;5.20;;;3.57;;
9398;SDS011;4739;49.334;8.792;2022-10-31T03:19:23;6.10;;;4.00;;
9398;SDS011;4739;49.334;8.792;2022-10-31T03:24:42;4.17;;;3.77;;
9398;SDS011;4739;49.334;8.792;2022-10-31T03:27:09;5.67;;;3.50;;
9398;SDS011;4739;49.334;8.792;2022-10-31T03:29:38;5.10;;;3.97;;
9398;SDS011;4739;49.334;8.792;2022-10-31T03:32:18;5.77;;;4.33;;
9398;SDS011;4739;49.334;8.792;2022-10-31T03:34:47;5.53;;;3.83;;
9398;SDS011;4739;49.334;8.792;2022-10-31T03:37:15;4.80;;;4.03;;
9398;SDS011;4739;49.334;8.792;2022-10-31T03:39:43;6.90;;;4.47;;
9398;SDS011;4739;49.334;8.792;2022-10-31T03:42:13;7.53;;;4.20;;
9398;SDS011;4739;49.334;8.792;2022-10-31T03:44:48;8.43;;;4.30;;
9398;SDS011;4739;49.334;8.792;2022-10-31T03:47:34;9.90;;;4.63;;
9398;SDS011;4739;49.334;8.792;2022-10-31T03:50:02;5.23;;;3.70;;
9398;SDS011;4739;49.334;8.792;2022-10-31T04:00:17;6.00;;;4.30;;
9398;SDS011;4739;49.334;8.792;2022-10-31T04:02:45;5.10;;;3.33;;
9398;SDS011;4739;49.334;8.792;2022-10-31T04:05:20;5.40;;;3.67;;
9398;SDS011;4739;49.334;8.792;2022-10-31T04:07:47;5.57;;;3.90;;
9398;SDS011;4739;49.334;8.792;2022-10-31T04:10:17;8.30;;;4.07;;
9398;SDS011;4739;49.334;8.792;2022-10-31T04:12:46;6.50;;;3.90;;
9398;SDS011;4739;49.334;8.792;2022-10-31T04:15:17;6.30;;;3.63;;
9398;SDS011;4739;49.334;8.792;2022-10-31T04:17:44;7.70;;;4.10;;
9398;SDS011;4739;49.334;8.792;2022-10-31T04:20:14;6.57;;;3.70;;
9398;SDS011;4739;49.334;8.792;2022-10-31T04:22:41;4.70;;;4.27;;
9398;SDS011;4739;49.334;8.792;2022-10-31T04:25:06;6.17;;;3.87;;
9398;SDS011;4739;49.334;8.792;2022-10-31T04:27:32;4.53;;;3.40;;
9398;SDS011;4739;49.334;8.792;2022-10-31T04:29:58;5.77;;;3.80;;
9398;SDS011;4739;49.334;8.792;2022-10-31T04:32:24;5.43;;;3.90;;
9398;SDS011;4739;49.334;8.792;2022-10-31T04:34:50;4.50;;;3.57;;
9398;SDS011;4739;49.334;8.792;2022-10-31T04:37:15;5.33;;;3.93;;
9398;SDS011;4739;49.334;8.792;2022-10-31T04:39:41;5.40;;;3.97;;
9398;SDS011;4739;49.334;8.792;2022-10-31T04:42:07;5.03;;;3.57;;
9398;SDS011;4739;49.334;8.792;2022-10-31T04:44:32;8.23;;;4.23;;
9398;SDS011;4739;49.334;8.792;2022-10-31T04:46:58;5.00;;;3.70;;
9398;SDS011;4739;49.334;8.792;2022-10-31T04:49:23;7.07;;;3.93;;
9398;SDS011;4739;49.334;8.792;2022-10-31T04:51:49;5.37;;;3.70;;
9398;SDS011;4739;49.334;8.792;2022-10-31T04:54:14;4.93;;;3.40;;
9398;SDS011;4739;49.334;8.792;2022-10-31T04:56:40;6.37;;;3.63;;
9398;SDS011;4739;49.334;8.792;2022-10-31T04:59:05;3.50;;;3.20;;
9398;SDS011;4739;49.334;8.792;2022-10-31T05:01:31;5.33;;;3.70;;
9398;SDS011;4739;49.334;8.792;2022-10-31T05:03:56;4.40;;;3.77;;
9398;SDS011;4739;49.334;8.792;2022-10-31T05:06:22;5.20;;;3.00;;
9398;SDS011;4739;49.334;8.792;2022-10-31T05:08:47;6.90;;;3.70;;
9398;SDS011;4739;49.334;8.792;2022-10-31T05:11:13;4.73;;;3.07;;
9398;SDS011;4739;49.334;8.792;2022-10-31T05:13:38;6.47;;;3.70;;
9398;SDS011;4739;49.334;8.792;2022-10-31T05:16:04;4.87;;;3.47;;
9398;SDS011;4739;49.334;8.792;2022-10-31T05:18:30;6.10;;;3.90;;
9398;SDS011;4739;49.334;8.792;2022-10-31T05:20:55;7.20;;;3.90;;
9398;SDS011;4739;49.334;8.792;2022-10-31T05:23:21;3.93;;;3.53;;
9398;SDS011;4739;49.334;8.792;2022-10-31T05:25:46;4.83;;;4.13;;
9398;SDS011;4739;49.334;8.792;2022-10-31T05:28:12;5.83;;;4.10;;
9398;SDS011;4739;49.334;8.792;2022-10-31T05:30:37;6.67;;;3.90;;
9398;SDS011;4739;49.334;8.792;2022-10-31T05:33:03;4.20;;;3.80;;
9398;SDS011;4739;49.334;8.792;2022-10-31T05:35:30;8.83;;;4.53;;
9398;SDS011;4739;49.334;8.792;2022-10-31T05:37:57;4.10;;;3.70;;
9398;SDS011;4739;49.334;8.792;2022-10-31T05:40:24;4.33;;;4.00;;
9398;SDS011;4739;49.334;8.792;2022-10-31T05:42:51;4.73;;;3.70;;
9398;SDS011;4739;49.334;8.792;2022-10-31T05:45:17;6.60;;;3.60;;
9398;SDS011;4739;49.334;8.792;2022-10-31T05:47:50;4.17;;;3.60;;
9398;SDS011;4739;49.334;8.792;2022-10-31T05:50:16;6.03;;;4.10;;
9398;SDS011;4739;49.334;8.792;2022-10-31T05:52:42;5.63;;;3.80;;
9398;SDS011;4739;49.334;8.792;2022-10-31T05:55:08;4.90;;;3.60;;
9398;SDS011;4739;49.334;8.792;2022-10-31T05:57:33;4.20;;;3.20;;
9398;SDS011;4739;49.334;8.792;2022-10-31T05:59:59;3.63;;;3.33;;
9398;SDS011;4739;49.334;8.792;2022-10-31T06:02:25;6.30;;;3.70;;
9398;SDS011;4739;49.334;8.792;2022-10-31T06:04:51;4.00;;;3.60;;
9398;SDS011;4739;49.334;8.792;2022-10-31T06:07:17;7.53;;;4.23;;
9398;SDS011;4739;49.334;8.792;2022-10-31T06:09:43;5.73;;;4.40;;
9398;SDS011;4739;49.334;8.792;2022-10-31T06:12:08;4.53;;;4.13;;
9398;SDS011;4739;49.334;8.792;2022-10-31T06:14:34;6.17;;;3.73;;
9398;SDS011;4739;49.334;8.792;2022-10-31T06:17:00;6.23;;;4.10;;
9398;SDS011;4739;49.334;8.792;2022-10-31T06:19:25;4.80;;;4.30;;
9398;SDS011;4739;49.334;8.792;2022-10-31T06:21:51;9.57;;;4.97;;
9398;SDS011;4739;49.334;8.792;2022-10-31T06:24:16;7.77;;;4.53;;
9398;SDS011;4739;49.334;8.792;2022-10-31T06:26:42;6.57;;;4.53;;
9398;SDS011;4739;49.334;8.792;2022-10-31T06:29:07;7.57;;;4.80;;
9398;SDS011;4739;49.334;8.792;2022-10-31T06:31:33;6.37;;;5.43;;
9398;SDS011;4739;49.334;8.792;2022-10-31T06:33:58;5.20;;;4.57;;
9398;SDS011;4739;49.334;8.792;2022-10-31T06:36:24;5.83;;;3.67;;
9398;SDS011;4739;49.334;8.792;2022-10-31T06:38:50;6.03;;;4.27;;
9398;SDS011;4739;49.334;8.792;2022-10-31T06:41:15;10.30;;;8.83;;
9398;SDS011;4739;49.334;8.792;2022-10-31T06:43:41;9.67;;;5.30;;
9398;SDS011;4739;49.334;8.792;2022-10-31T06:46:06;6.90;;;4.30;;
9398;SDS011;4739;49.334;8.792;2022-10-31T06:48:32;5.27;;;3.90;;
9398;SDS011;4739;49.334;8.792;2022-10-31T06:50:58;9.33;;;4.53;;
9398;SDS011;4739;49.334;8.792;2022-10-31T06:53:24;5.17;;;3.80;;
9398;SDS011;4739;49.334;8.792;2022-10-31T06:55:50;4.70;;;3.63;;
9398;SDS011;4739;49.334;8.792;2022-10-31T06:58:16;7.87;;;4.63;;
9398;SDS011;4739;49.334;8.792;2022-10-31T07:00:41;10.13;;;4.77;;
9398;SDS011;4739;49.334;8.792;2022-10-31T07:03:09;6.30;;;5.00;;
9398;SDS011;4739;49.334;8.792;2022-10-31T07:05:37;9.63;;;7.80;;
9398;SDS011;4739;49.334;8.792;2022-10-31T07:08:03;12.57;;;9.03;;
9398;SDS011;4739;49.334;8.792;2022-10-31T07:10:31;10.17;;;5.97;;
9398;SDS011;4739;49.334;8.792;2022-10-31T07:12:59;8.73;;;6.27;;
9398;SDS011;4739;49.334;8.792;2022-10-31T07:15:28;11.30;;;7.07;;
9398;SDS011;4739;49.334;8.792;2022-10-31T07:18:02;12.60;;;9.23;;
9398;SDS011;4739;49.334;8.792;2022-10-31T07:20:28;15.13;;;9.50;;
9398;SDS011;4739;49.334;8.792;2022-10-31T07:22:54;8.63;;;7.00;;
9398;SDS011;4739;49.334;8.792;2022-10-31T07:25:20;9.50;;;6.20;;
9398;SDS011;4739;49.334;8.792;2022-10-31T07:27:46;9.63;;;7.10;;
9398;SDS011;4739;49.334;8.792;2022-10-31T07:30:12;9.60;;;6.67;;
9398;SDS011;4739;49.334;8.792;2022-10-31T07:35:15;11.13;;;7.80;;
9398;SDS011;4739;49.334;8.792;2022-10-31T07:37:42;11.20;;;7.60;;
9398;SDS011;4739;49.334;8.792;2022-10-31T07:40:08;9.07;;;6.60;;
9398;SDS011;4739;49.334;8.792;2022-10-31T07:42:35;12.07;;;6.60;;
9398;SDS011;4739;49.334;8.792;2022-10-31T07:45:02;10.07;;;6.47;;
9398;SDS011;4739;49.334;8.792;2022-10-31T07:47:28;11.20;;;6.83;;
9398;SDS011;4739;49.334;8.792;2022-10-31T07:49:54;8.37;;;7.17;;
9398;SDS011;4739;49.334;8.792;2022-10-31T07:52:19;10.70;;;6.67;;
9398;SDS011;4739;49.334;8.792;2022-10-31T07:54:45;9.53;;;6.97;;
9398;SDS011;4739;49.334;8.792;2022-10-31T07:57:11;7.13;;;5.80;;
9398;SDS011;4739;49.334;8.792;2022-10-31T07:59:36;9.07;;;5.83;;
9398;SDS011;4739;49.334;8.792;2022-10-31T08:02:02;8.40;;;5.50;;
9398;SDS011;4739;49.334;8.792;2022-10-31T08:04:27;6.20;;;5.17;;
9398;SDS011;4739;49.334;8.792;2022-10-31T08:06:53;7.93;;;5.27;;
9398;SDS011;4739;49.334;8.792;2022-10-31T08:09:18;10.13;;;5.40;;
9398;SDS011;4739;49.334;8.792;2022-10-31T08:11:44;8.00;;;5.63;;
9398;SDS011;4739;49.334;8.792;2022-10-31T08:14:09;10.20;;;5.60;;
9398;SDS011;4739;49.334;8.792;2022-10-31T08:16:35;7.73;;;5.10;;
9398;SDS011;4739;49.334;8.792;2022-10-31T08:19:00;7.00;;;5.07;;
9398;SDS011;4739;49.334;8.792;2022-10-31T08:21:26;7.20;;;4.77;;
9398;SDS011;4739;49.334;8.792;2022-10-31T08:23:52;9.07;;;5.07;;
9398;SDS011;4739;49.334;8.792;2022-10-31T08:26:17;8.03;;;4.40;;
9398;SDS011;4739;49.334;8.792;2022-10-31T08:28:43;5.50;;;4.20;;
9398;SDS011;4739;49.334;8.792;2022-10-31T08:31:08;8.03;;;5.07;;
9398;SDS011;4739;49.334;8.792;2022-10-31T08:33:35;6.00;;;4.87;;
9398;SDS011;4739;49.334;8.792;2022-10-31T08:36:00;7.80;;;4.97;;
9398;SDS011;4739;49.334;8.792;2022-10-31T08:38:26;12.63;;;11.37;;
9398;SDS011;4739;49.334;8.792;2022-10-31T08:40:51;7.77;;;5.40;;
9398;SDS011;4739;49.334;8.792;2022-10-31T08:43:17;7.10;;;5.63;;
9398;SDS011;4739;49.334;8.792;2022-10-31T08:45:43;5.93;;;5.30;;
9398;SDS011;4739;49.334;8.792;2022-10-31T08:48:12;7.20;;;5.23;;
9398;SDS011;4739;49.334;8.792;2022-10-31T08:50:39;9.43;;;5.70;;
9398;SDS011;4739;49.334;8.792;2022-10-31T08:53:07;7.23;;;5.70;;
9398;SDS011;4739;49.334;8.792;2022-10-31T08:55:36;8.73;;;5.80;;
9398;SDS011;4739;49.334;8.792;2022-10-31T08:58:06;9.10;;;5.23;;
9398;SDS011;4739;49.334;8.792;2022-10-31T09:00:34;7.87;;;4.90;;
9398;SDS011;4739;49.334;8.792;2022-10-31T09:03:01;6.77;;;5.40;;
9398;SDS011;4739;49.334;8.792;2022-10-31T09:05:28;7.30;;;5.20;;
9398;SDS011;4739;49.334;8.792;2022-10-31T09:07:55;6.60;;;5.00;;
9398;SDS011;4739;49.334;8.792;2022-10-31T09:10:22;6.90;;;5.07;;
9398;SDS011;4739;49.334;8.792;2022-10-31T09:12:54;7.03;;;5.23;;
9398;SDS011;4739;49.334;8.792;2022-10-31T09:15:23;6.47;;;4.53;;
9398;SDS011;4739;49.334;8.792;2022-10-31T09:17:49;8.13;;;4.80;;
9398;SDS011;4739;49.334;8.792;2022-10-31T09:20:15;6.63;;;4.70;;
9398;SDS011;4739;49.334;8.792;2022-10-31T09:22:41;7.00;;;4.67;;
9398;SDS011;4739;49.334;8.792;2022-10-31T09:25:07;8.63;;;4.80;;
9398;SDS011;4739;49.334;8.792;2022-10-31T09:27:33;9.20;;;5.13;;
9398;SDS011;4739;49.334;8.792;2022-10-31T09:29:58;4.40;;;3.90;;
9398;SDS011;4739;49.334;8.792;2022-10-31T09:32:24;8.13;;;4.60;;
9398;SDS011;4739;49.334;8.792;2022-10-31T09:34:49;7.70;;;4.90;;
9398;SDS011;4739;49.334;8.792;2022-10-31T09:37:15;7.80;;;4.93;;
9398;SDS011;4739;49.334;8.792;2022-10-31T09:39:40;9.13;;;5.43;;
9398;SDS011;4739;49.334;8.792;2022-10-31T09:42:25;8.67;;;5.40;;
9398;SDS011;4739;49.334;8.792;2022-10-31T09:50:24;7.40;;;4.73;;
9398;SDS011;4739;49.334;8.792;2022-10-31T09:53:03;10.17;;;4.57;;
9398;SDS011;4739;49.334;8.792;2022-10-31T09:55:37;6.17;;;3.97;;
9398;SDS011;4739;49.334;8.792;2022-10-31T09:58:08;5.57;;;4.30;;
9398;SDS011;4739;49.334;8.792;2022-10-31T10:00:42;6.67;;;4.10;;
9398;SDS011;4739;49.334;8.792;2022-10-31T10:06:12;6.10;;;4.53;;
9398;SDS011;4739;49.334;8.792;2022-10-31T10:08:41;8.70;;;5.37;;
9398;SDS011;4739;49.334;8.792;2022-10-31T10:19:43;9.07;;;6.33;;
9398;SDS011;4739;49.334;8.792;2022-10-31T10:32:50;8.20;;;5.70;;
9398;SDS011;4739;49.334;8.792;2022-10-31T10:38:09;10.13;;;6.30;;
9398;SDS011;4739;49.334;8.792;2022-10-31T10:40:41;10.27;;;7.43;;
9398;SDS011;4739;49.334;8.792;2022-10-31T10:43:13;11.40;;;7.23;;
9398;SDS011;4739;49.334;8.792;2022-10-31T10:51:58;8.80;;;6.50;;
9398;SDS011;4739;49.334;8.792;2022-10-31T10:57:21;10.43;;;6.30;;
9398;SDS011;4739;49.334;8.792;2022-10-31T11:00:05;11.93;;;6.60;;
9398;SDS011;4739;49.334;8.792;2022-10-31T11:02:41;10.50;;;6.90;;
9398;SDS011;4739;49.334;8.792;2022-10-31T11:05:08;9.67;;;6.60;;
9398;SDS011;4739;49.334;8.792;2022-10-31T11:07:43;10.00;;;6.27;;
9398;SDS011;4739;49.334;8.792;2022-10-31T11:10:12;8.57;;;6.57;;
9398;SDS011;4739;49.334;8.792;2022-10-31T11:12:42;9.30;;;6.30;;
9398;SDS011;4739;49.334;8.792;2022-10-31T11:15:20;8.23;;;6.50;;
9398;SDS011;4739;49.334;8.792;2022-10-31T11:17:48;10.43;;;6.20;;
9398;SDS011;4739;49.334;8.792;2022-10-31T11:22:43;8.07;;;6.20;;
9398;SDS011;4739;49.334;8.792;2022-10-31T11:27:44;9.53;;;5.30;;
9398;SDS011;4739;49.334;8.792;2022-10-31T11:30:11;8.07;;;5.97;;
9398;SDS011;4739;49.334;8.792;2022-10-31T11:32:40;7.97;;;5.40;;
9398;SDS011;4739;49.334;8.792;2022-10-31T11:35:12;9.27;;;5.03;;
9398;SDS011;4739;49.334;8.792;2022-10-31T11:37:41;7.57;;;5.20;;
9398;SDS011;4739;49.334;8.792;2022-10-31T11:40:18;8.00;;;4.83;;
9398;SDS011;4739;49.334;8.792;2022-10-31T11:42:48;8.00;;;4.90;;
9398;SDS011;4739;49.334;8.792;2022-10-31T11:45:17;9.87;;;4.53;;
9398;SDS011;4739;49.334;8.792;2022-10-31T11:47:53;10.47;;;5.10;;
9398;SDS011;4739;49.334;8.792;2022-10-31T11:50:21;11.20;;;4.57;;
9398;SDS011;4739;49.334;8.792;2022-10-31T11:52:51;9.20;;;6.10;;
9398;SDS011;4739;49.334;8.792;2022-10-31T11:57:58;7.80;;;4.33;;
9398;SDS011;4739;49.334;8.792;2022-10-31T12:00:27;8.03;;;4.57;;
9398;SDS011;4739;49.334;8.792;2022-10-31T12:03:04;9.80;;;4.77;;
9398;SDS011;4739;49.334;8.792;2022-10-31T12:05:39;11.53;;;5.43;;
9398;SDS011;4739;49.334;8.792;2022-10-31T12:08:07;10.37;;;4.87;;
9398;SDS011;4739;49.334;8.792;2022-10-31T12:16:18;9.97;;;4.70;;
9398;SDS011;4739;49.334;8.792;2022-10-31T12:18:57;6.27;;;4.83;;
9398;SDS011;4739;49.334;8.792;2022-10-31T12:27:15;6.87;;;4.30;;
9398;SDS011;4739;49.334;8.792;2022-10-31T12:35:45;8.83;;;4.07;;
9398;SDS011;4739;49.334;8.792;2022-10-31T12:40:45;9.20;;;4.20;;
9398;SDS011;4739;49.334;8.792;2022-10-31T12:43:36;7.57;;;4.10;;
9398;SDS011;4739;49.334;8.792;2022-10-31T12:46:12;7.77;;;4.20;;
9398;SDS011;4739;49.334;8.792;2022-10-31T12:48:57;7.63;;;4.30;;
9398;SDS011;4739;49.334;8.792;2022-10-31T12:51:57;7.80;;;4.17;;
9398;SDS011;4739;49.334;8.792;2022-10-31T12:57:37;8.63;;;4.93;;
9398;SDS011;4739;49.334;8.792;2022-10-31T13:00:16;7.47;;;4.40;;
9398;SDS011;4739;49.334;8.792;2022-10-31T13:05:41;7.90;;;4.00;;
9398;SDS011;4739;49.334;8.792;2022-10-31T13:11:00;8.87;;;4.20;;
9398;SDS011;4739;49.334;8.792;2022-10-31T13:13:57;6.60;;;4.53;;
9398;SDS011;4739;49.334;8.792;2022-10-31T13:16:33;11.93;;;4.37;;
9398;SDS011;4739;49.334;8.792;2022-10-31T13:21:37;9.90;;;5.10;;
9398;SDS011;4739;49.334;8.792;2022-10-31T13:24:31;10.93;;;4.73;;
9398;SDS011;4739;49.334;8.792;2022-10-31T13:27:17;9.97;;;4.93;;
9398;SDS011;4739;49.334;8.792;2022-10-31T13:29:52;9.57;;;4.93;;
9398;SDS011;4739;49.334;8.792;2022-10-31T13:32:18;12.47;;;4.47;;
9398;SDS011;4739;49.334;8.792;2022-10-31T13:34:47;8.93;;;5.23;;
9398;SDS011;4739;49.334;8.792;2022-10-31T13:39:55;9.37;;;5.60;;
9398;SDS011;4739;49.334;8.792;2022-10-31T13:45:25;7.87;;;4.70;;
9398;SDS011;4739;49.334;8.792;2022-10-31T13:48:16;7.60;;;4.60;;
9398;SDS011;4739;49.334;8.792;2022-10-31T13:50:57;7.47;;;4.53;;
9398;SDS011;4739;49.334;8.792;2022-10-31T13:53:43;9.23;;;4.40;;
9398;SDS011;4739;49.334;8.792;2022-10-31T13:56:21;8.93;;;4.30;;
9398;SDS011;4739;49.334;8.792;2022-10-31T14:01:33;9.20;;;4.87;;
9398;SDS011;4739;49.334;8.792;2022-10-31T14:06:37;5.30;;;3.87;;
9398;SDS011;4739;49.334;8.792;2022-10-31T14:09:19;6.50;;;4.07;;
9398;SDS011;4739;49.334;8.792;2022-10-31T14:11:49;8.60;;;5.00;;
9398;SDS011;4739;49.334;8.792;2022-10-31T14:14:15;7.10;;;4.90;;
9398;SDS011;4739;49.334;8.792;2022-10-31T14:16:44;6.03;;;4.17;;
9398;SDS011;4739;49.334;8.792;2022-10-31T14:19:14;8.63;;;4.30;;
9398;SDS011;4739;49.334;8.792;2022-10-31T14:21:44;8.23;;;4.03;;
9398;SDS011;4739;49.334;8.792;2022-10-31T14:24:15;7.17;;;4.33;;
9398;SDS011;4739;49.334;8.792;2022-10-31T14:27:00;8.43;;;4.17;;
9398;SDS011;4739;49.334;8.792;2022-10-31T14:29:29;9.73;;;4.53;;
9398;SDS011;4739;49.334;8.792;2022-10-31T14:31:58;8.03;;;4.33;;
9398;SDS011;4739;49.334;8.792;2022-10-31T14:40:14;8.30;;;4.37;;
9398;SDS011;4739;49.334;8.792;2022-10-31T14:51:20;10.90;;;5.03;;
9398;SDS011;4739;49.334;8.792;2022-10-31T14:53:48;9.63;;;4.80;;
9398;SDS011;4739;49.334;8.792;2022-10-31T14:56:24;12.60;;;5.50;;
9398;SDS011;4739;49.334;8.792;2022-10-31T14:58:51;8.77;;;4.67;;
9398;SDS011;4739;49.334;8.792;2022-10-31T15:03:48;14.83;;;5.80;;
9398;SDS011;4739;49.334;8.792;2022-10-31T15:06:15;7.63;;;4.90;;
9398;SDS011;4739;49.334;8.792;2022-10-31T15:08:44;9.23;;;4.90;;
9398;SDS011;4739;49.334;8.792;2022-10-31T15:14:16;9.97;;;4.93;;
9398;SDS011;4739;49.334;8.792;2022-10-31T15:16:56;10.20;;;4.67;;
9398;SDS011;4739;49.334;8.792;2022-10-31T15:19:23;8.53;;;4.57;;
9398;SDS011;4739;49.334;8.792;2022-10-31T15:21:52;8.30;;;5.13;;
9398;SDS011;4739;49.334;8.792;2022-10-31T15:24:19;11.03;;;4.87;;
9398;SDS011;4739;49.334;8.792;2022-10-31T15:26:48;7.57;;;4.33;;
9398;SDS011;4739;49.334;8.792;2022-10-31T15:29:17;5.90;;;4.27;;
9398;SDS011;4739;49.334;8.792;2022-10-31T15:31:54;9.27;;;4.27;;
9398;SDS011;4739;49.334;8.792;2022-10-31T15:34:33;9.77;;;5.30;;
9398;SDS011;4739;49.334;8.792;2022-10-31T15:37:09;9.03;;;5.00;;
9398;SDS011;4739;49.334;8.792;2022-10-31T15:39:44;9.00;;;4.73;;
9398;SDS011;4739;49.334;8.792;2022-10-31T15:42:30;7.30;;;4.70;;
9398;SDS011;4739;49.334;8.792;2022-10-31T15:47:28;7.63;;;4.77;;
9398;SDS011;4739;49.334;8.792;2022-10-31T15:49:56;7.43;;;5.30;;
9398;SDS011;4739;49.334;8.792;2022-10-31T15:55:15;12.97;;;8.93;;
9398;SDS011;4739;49.334;8.792;2022-10-31T15:57:48;12.60;;;5.93;;
9398;SDS011;4739;49.334;8.792;2022-10-31T16:00:36;10.17;;;5.70;;
9398;SDS011;4739;49.334;8.792;2022-10-31T16:05:38;14.90;;;5.97;;
9398;SDS011;4739;49.334;8.792;2022-10-31T16:13:37;13.03;;;7.00;;
9398;SDS011;4739;49.334;8.792;2022-10-31T16:16:24;14.17;;;6.40;;
9398;SDS011;4739;49.334;8.792;2022-10-31T16:18:51;9.77;;;5.77;;
9398;SDS011;4739;49.334;8.792;2022-10-31T16:21:29;12.33;;;6.40;;
9398;SDS011;4739;49.334;8.792;2022-10-31T16:24:48;10.13;;;6.37;;
9398;SDS011;4739;49.334;8.792;2022-10-31T16:26:54;18.00;;;11.57;;
9398;SDS011;4739;49.334;8.792;2022-10-31T16:29:42;10.00;;;6.70;;
9398;SDS011;4739;49.334;8.792;2022-10-31T16:37:42;6.73;;;5.43;;
9398;SDS011;4739;49.334;8.792;2022-10-31T16:40:12;8.57;;;5.67;;
9398;SDS011;4739;49.334;8.792;2022-10-31T16:42:39;10.97;;;5.53;;
9398;SDS011;4739;49.334;8.792;2022-10-31T16:45:05;11.93;;;6.33;;
9398;SDS011;4739;49.334;8.792;2022-10-31T16:47:32;12.73;;;6.30;;
9398;SDS011;4739;49.334;8.792;2022-10-31T16:49:58;13.23;;;6.60;;
9398;SDS011;4739;49.334;8.792;2022-10-31T16:52:24;12.67;;;7.03;;
9398;SDS011;4739;49.334;8.792;2022-10-31T16:54:51;12.97;;;6.77;;
9398;SDS011;4739;49.334;8.792;2022-10-31T16:57:20;9.93;;;6.27;;
9398;SDS011;4739;49.334;8.792;2022-10-31T16:59:53;8.90;;;8.00;;
9398;SDS011;4739;49.334;8.792;2022-10-31T17:02:19;11.37;;;5.97;;
9398;SDS011;4739;49.334;8.792;2022-10-31T17:04:45;8.67;;;5.60;;
9398;SDS011;4739;49.334;8.792;2022-10-31T17:07:11;13.27;;;6.47;;
9398;SDS011;4739;49.334;8.792;2022-10-31T17:09:36;7.73;;;5.77;;
9398;SDS011;4739;49.334;8.792;2022-10-31T17:12:02;10.23;;;6.10;;
9398;SDS011;4739;49.334;8.792;2022-10-31T17:14:30;9.10;;;5.80;;
9398;SDS011;4739;49.334;8.792;2022-10-31T17:16:56;9.77;;;5.90;;
9398;SDS011;4739;49.334;8.792;2022-10-31T17:19:22;8.63;;;5.53;;
9398;SDS011;4739;49.334;8.792;2022-10-31T17:21:47;7.40;;;5.73;;
9398;SDS011;4739;49.334;8.792;2022-10-31T17:24:14;8.17;;;6.00;;
9398;SDS011;4739;49.334;8.792;2022-10-31T17:26:39;9.27;;;5.60;;
9398;SDS011;4739;49.334;8.792;2022-10-31T17:29:05;9.57;;;6.07;;
9398;SDS011;4739;49.334;8.792;2022-10-31T17:31:32;11.60;;;6.77;;
9398;SDS011;4739;49.334;8.792;2022-10-31T17:34:00;9.57;;;6.23;;
9398;SDS011;4739;49.334;8.792;2022-10-31T17:36:27;6.33;;;5.30;;
9398;SDS011;4739;49.334;8.792;2022-10-31T17:38:52;7.57;;;5.63;;
9398;SDS011;4739;49.334;8.792;2022-10-31T17:41:18;9.00;;;5.67;;
9398;SDS011;4739;49.334;8.792;2022-10-31T17:43:43;9.30;;;5.47;;
9398;SDS011;4739;49.334;8.792;2022-10-31T17:46:09;7.77;;;5.40;;
9398;SDS011;4739;49.334;8.792;2022-10-31T17:48:35;10.03;;;5.67;;
9398;SDS011;4739;49.334;8.792;2022-10-31T17:51:05;17.40;;;11.77;;
9398;SDS011;4739;49.334;8.792;2022-10-31T17:53:31;17.60;;;14.57;;
9398;SDS011;4739;49.334;8.792;2022-10-31T17:55:59;15.03;;;11.33;;
9398;SDS011;4739;49.334;8.792;2022-10-31T17:58:25;12.03;;;9.67;;
9398;SDS011;4739;49.334;8.792;2022-10-31T18:00:51;12.53;;;10.07;;
9398;SDS011;4739;49.334;8.792;2022-10-31T18:03:17;13.63;;;10.20;;
9398;SDS011;4739;49.334;8.792;2022-10-31T18:05:50;15.63;;;11.97;;